Airfield :
LOGIN :

Register | Disclaimer

   EN    FR    IT 

 










Legend :    VFR   Marginal VFR   IFR   Intensive IFR   Very Intensive IFR
Visi :
Ceiling :
>= 8 km
>= 3000ft
5 to 8 km
1000 to 3000 ft
1500m to 5 km
500 to 1000 ft
800 to 1500m
200 to 500 ft
< 800m
< 200 ft
Symbols :   Thunderstorms  Fog  Heavy snow  Heavy precipitations  Wind > 20 kt
SIGMETs :     Misc.  Thunderstorms  Icing  Turbulence  Mountain Waves  Volcanic Ashes







- Airport Elevation : 821 ft
- IATA code : LYS
- Download approach charts


LFLL - Lyon St Exupéry / Satolas

CURRENT METAR :
  • 181430Z 02008KT 330V070 CAVOK 29/09 Q1013 NOSIG

EXPIRED METARs :
  • 181400Z 04008KT 330V080 CAVOK 29/10 Q1013 NOSIG
  • 181330Z 02007KT 320V060 CAVOK 29/10 Q1013 NOSIG
  • 181300Z 36007KT 300V040 CAVOK 29/09 Q1013 NOSIG
  • 181230Z 35006KT 280V040 CAVOK 29/10 Q1014 NOSIG
  • 181200Z 32006G16KT 250V010 CAVOK 28/08 Q1014 NOSIG

TAF TAF LFLL
Valid from the 18 at 12:00 until the 19 at 18:00 UTC


181100Z 1812/1918 35008KT CAVOK
BECMG 1820/1822 VRB02KT
BECMG 1907/1909 36005KT
No reported NOTAMs for that airfield.



MET'MAP, your aeronautical weather chart ! - Copyright ORBIFLY December 2007 - Disclaimer

ORBIFLY MET'MAP TEAM :

Programming & Development : Alexandra Zaïnal
Concept & Development : Baudouin d'Aumeries
Co-Development & Prog : Marc-Olivier Méhu
Technical & hardware support : Manuel Goepfert

Contact : metmap@orbifly.com




SOURCES & CREDITS :

   NOAA